createdAt,value
2017-06-28T00:01:12.123Z,18.60
2017-06-28T00:03:40.444Z,18.50
2017-06-28T00:06:08.720Z,18.40
2017-06-28T00:08:37.000Z,18.40
2017-06-28T00:11:05.300Z,18.40
2017-06-28T00:13:34.341Z,18.60
2017-06-28T00:16:02.617Z,18.50
2017-06-28T00:18:30.936Z,18.50
2017-06-28T00:20:59.207Z,18.40
2017-06-28T00:23:27.491Z,18.40
2017-06-28T00:25:55.824Z,18.50
2017-06-28T00:28:24.108Z,18.50
2017-06-28T00:30:52.391Z,18.50
2017-06-28T00:33:20.699Z,18.50
2017-06-28T00:35:48.975Z,18.60
2017-06-28T00:38:17.253Z,18.60
2017-06-28T00:40:45.582Z,18.60
2017-06-28T00:43:13.867Z,18.60
2017-06-28T00:45:42.149Z,18.60
2017-06-28T00:48:10.467Z,18.60
2017-06-28T00:50:38.768Z,18.60
2017-06-28T00:53:07.053Z,18.50
2017-06-28T00:55:35.368Z,18.40
2017-06-28T00:58:03.645Z,18.50
2017-06-28T01:00:31.920Z,18.50
2017-06-28T01:03:00.332Z,18.40
2017-06-28T01:05:28.608Z,18.30
2017-06-28T01:07:56.888Z,18.30
2017-06-28T01:10:25.223Z,18.20
2017-06-28T01:12:53.532Z,18.20
2017-06-28T01:15:21.835Z,18.10
2017-06-28T01:17:50.908Z,18.20
2017-06-28T01:20:19.963Z,18.20
2017-06-28T01:22:48.231Z,18.20
2017-06-28T01:25:16.552Z,18.20
2017-06-28T01:27:44.831Z,18.20
2017-06-28T01:30:13.112Z,18.20
2017-06-28T01:32:41.436Z,18.20
2017-06-28T01:35:09.710Z,18.10
2017-06-28T01:37:37.984Z,18.10
2017-06-28T01:40:06.484Z,18.10
2017-06-28T01:42:35.523Z,18.30
2017-06-28T01:45:03.796Z,18.20
2017-06-28T01:47:32.288Z,18.30
2017-06-28T01:50:01.332Z,18.30
2017-06-28T01:52:29.613Z,18.30
2017-06-28T01:54:57.924Z,18.20
2017-06-28T01:57:26.204Z,18.20
2017-06-28T01:59:54.488Z,18.20
2017-06-28T02:02:22.786Z,18.30
2017-06-28T02:04:51.060Z,18.20
2017-06-28T02:07:19.344Z,18.20
2017-06-28T02:09:47.873Z,18.20
2017-06-28T02:12:16.911Z,18.30
2017-06-28T02:14:45.183Z,18.30
2017-06-28T02:17:13.485Z,18.40
2017-06-28T02:19:42.528Z,18.30
2017-06-28T02:22:10.800Z,18.30
2017-06-28T02:24:39.884Z,18.30
2017-06-28T02:27:08.939Z,18.30
2017-06-28T02:29:37.207Z,18.30
2017-06-28T02:32:05.516Z,18.30
2017-06-28T02:34:33.788Z,18.40
2017-06-28T02:37:02.064Z,18.40
2017-06-28T02:39:30.384Z,18.50
2017-06-28T02:41:59.424Z,18.30
2017-06-28T02:44:27.927Z,18.30
2017-06-28T02:46:56.995Z,18.30
2017-06-28T02:49:26.048Z,18.40
2017-06-28T02:51:54.329Z,18.30
2017-06-28T02:54:22.646Z,18.30
2017-06-28T02:56:50.933Z,18.30
2017-06-28T02:59:19.215Z,18.40
2017-06-28T03:01:47.528Z,18.40
2017-06-28T03:04:15.812Z,18.40
2017-06-28T03:06:44.083Z,18.50
2017-06-28T03:09:12.404Z,18.50
2017-06-28T03:11:40.680Z,18.40
2017-06-28T03:14:08.964Z,18.40
2017-06-28T03:16:37.276Z,18.40
2017-06-28T03:19:05.552Z,18.30
2017-06-28T03:21:33.828Z,18.30
2017-06-28T03:24:02.140Z,18.30
2017-06-28T03:26:31.180Z,18.20
2017-06-28T03:28:59.457Z,18.20
2017-06-28T03:31:27.880Z,18.30
2017-06-28T03:33:56.157Z,18.30
2017-06-28T03:36:24.437Z,18.40
2017-06-28T03:38:52.748Z,18.40
2017-06-28T03:41:21.028Z,18.40
2017-06-28T03:43:49.305Z,18.40
2017-06-28T03:46:17.821Z,18.40
2017-06-28T03:48:46.864Z,18.50
2017-06-28T03:51:15.139Z,18.40
2017-06-28T03:53:43.732Z,18.50
2017-06-28T03:56:12.772Z,18.70
2017-06-28T03:58:41.044Z,18.60
2017-06-28T04:01:09.368Z,18.70
2017-06-28T04:03:37.643Z,18.70
2017-06-28T04:06:05.927Z,18.60
2017-06-28T04:08:34.259Z,18.60
2017-06-28T04:11:02.532Z,18.60
2017-06-28T04:13:30.807Z,18.70
2017-06-28T04:15:59.143Z,18.70
2017-06-28T04:18:27.421Z,18.70
2017-06-28T04:20:55.696Z,18.70
2017-06-28T04:23:24.003Z,18.70
2017-06-28T04:25:52.282Z,18.70
2017-06-28T04:28:20.560Z,18.80
2017-06-28T04:30:48.875Z,18.90
2017-06-28T04:33:17.908Z,18.90
2017-06-28T04:35:46.184Z,18.90
2017-06-28T04:38:14.682Z,18.80
2017-06-28T04:40:43.720Z,18.80
2017-06-28T04:43:11.996Z,18.80
2017-06-28T04:45:40.307Z,18.90
2017-06-28T04:48:08.584Z,18.90
2017-06-28T04:50:36.863Z,18.90
2017-06-28T04:53:05.172Z,18.90
2017-06-28T04:55:34.212Z,18.80
2017-06-28T04:58:02.484Z,18.70
2017-06-28T05:00:30.792Z,18.70
2017-06-28T05:02:59.073Z,18.80
2017-06-28T05:05:27.348Z,18.90
2017-06-28T05:07:55.668Z,19.00
2017-06-28T05:10:23.944Z,18.90
2017-06-28T05:12:52.225Z,19.00
2017-06-28T05:15:20.540Z,19.00
2017-06-28T05:17:49.580Z,19.10
2017-06-28T05:20:17.872Z,19.10
2017-06-28T05:22:46.955Z,19.10
2017-06-28T05:25:15.996Z,19.20
2017-06-28T05:27:44.279Z,19.10
2017-06-28T05:30:12.589Z,19.20
2017-06-28T05:32:40.864Z,19.30
2017-06-28T05:35:09.141Z,19.20
2017-06-28T05:37:37.472Z,19.30
2017-06-28T05:40:05.752Z,19.30
2017-06-28T05:42:34.024Z,19.30
2017-06-28T05:45:02.355Z,19.40
2017-06-28T05:47:30.638Z,19.40
2017-06-28T05:49:58.908Z,19.50
2017-06-28T05:52:27.211Z,19.50
2017-06-28T05:54:56.252Z,19.50
2017-06-28T05:57:24.536Z,19.50
2017-06-28T05:59:52.843Z,19.50
2017-06-28T06:02:21.129Z,19.40
2017-06-28T06:04:49.427Z,19.40
2017-06-28T06:07:17.696Z,19.40
2017-06-28T06:09:46.744Z,19.40
2017-06-28T06:12:15.027Z,19.40
2017-06-28T06:14:43.341Z,19.40
2017-06-28T06:17:11.617Z,19.30
2017-06-28T06:19:39.892Z,19.20
2017-06-28T06:22:08.192Z,19.10
2017-06-28T06:24:37.246Z,18.90
2017-06-28T06:27:05.523Z,18.90
2017-06-28T06:29:34.613Z,19.00
2017-06-28T06:32:03.664Z,18.90
2017-06-28T06:34:31.952Z,18.90
2017-06-28T06:37:01.043Z,18.90
2017-06-28T06:39:29.324Z,18.90
2017-06-28T06:41:57.608Z,18.80
2017-06-28T06:44:25.951Z,18.80
2017-06-28T06:46:54.228Z,18.70
2017-06-28T06:49:22.524Z,18.70
2017-06-28T06:51:50.856Z,18.60
2017-06-28T06:54:19.140Z,18.60
2017-06-28T06:56:47.430Z,18.60
2017-06-28T06:59:16.512Z,18.70
2017-06-28T07:01:44.800Z,18.60
2017-06-28T07:04:13.084Z,18.60
2017-06-28T07:06:41.423Z,18.70
2017-06-28T07:09:09.712Z,18.70
2017-06-28T07:11:37.988Z,18.70
2017-06-28T07:14:06.320Z,18.80
2017-06-28T07:16:34.591Z,18.90
2017-06-28T07:19:02.888Z,18.80
2017-06-28T07:21:31.360Z,18.70
2017-06-28T07:24:00.404Z,18.80
2017-06-28T07:26:28.692Z,18.80
2017-06-28T07:28:57.890Z,18.90
2017-06-28T07:31:26.928Z,18.80
2017-06-28T07:33:55.212Z,18.80
2017-06-28T07:36:23.523Z,18.80
2017-06-28T07:38:51.804Z,18.80
2017-06-28T07:41:20.087Z,18.80
2017-06-28T07:43:48.400Z,18.80
2017-06-28T07:46:16.706Z,19.00
2017-06-28T07:48:45.293Z,19.00
2017-06-28T07:51:13.768Z,18.90
2017-06-28T07:53:42.816Z,18.90
2017-06-28T07:56:11.128Z,18.80
2017-06-28T07:58:40.208Z,18.90
2017-06-28T08:01:08.488Z,18.80
2017-06-28T08:03:36.759Z,18.90
2017-06-28T08:06:05.103Z,19.00
2017-06-28T08:08:33.379Z,19.10
2017-06-28T08:11:01.655Z,19.30
2017-06-28T08:13:29.979Z,19.40
2017-06-28T08:15:58.260Z,19.50
2017-06-28T08:18:26.551Z,19.50
2017-06-28T08:20:54.864Z,19.60
2017-06-28T08:23:23.144Z,19.50
2017-06-28T08:25:51.420Z,19.60
2017-06-28T08:28:19.744Z,19.60
2017-06-28T08:30:48.019Z,19.80
2017-06-28T08:33:16.296Z,20.10
2017-06-28T08:35:44.608Z,20.50
2017-06-28T08:38:13.657Z,20.60
2017-06-28T08:40:41.931Z,20.60
2017-06-28T08:43:10.248Z,20.70
2017-06-28T08:45:38.524Z,20.60
2017-06-28T08:48:06.832Z,20.50
2017-06-28T08:50:35.998Z,20.60
2017-06-28T08:53:04.271Z,20.60
2017-06-28T08:55:33.329Z,20.90
2017-06-28T08:58:01.636Z,20.90
2017-06-28T09:00:29.936Z,21.00
2017-06-28T09:02:58.225Z,21.00
2017-06-28T09:05:26.547Z,21.00
2017-06-28T09:07:54.820Z,20.90
2017-06-28T09:10:23.096Z,21.00
2017-06-28T09:12:51.528Z,21.00
2017-06-28T09:15:19.807Z,20.90
2017-06-28T09:17:48.088Z,20.90
2017-06-28T09:20:16.396Z,21.10
2017-06-28T09:22:44.672Z,21.10
2017-06-28T09:25:12.948Z,21.00
2017-06-28T09:27:41.259Z,21.20
2017-06-28T09:30:10.300Z,21.50
2017-06-28T09:32:38.590Z,21.40
2017-06-28T09:35:06.901Z,21.40
2017-06-28T09:37:35.176Z,21.40
2017-06-28T09:40:03.452Z,21.50
2017-06-28T09:42:31.764Z,21.60
2017-06-28T09:45:00.041Z,21.80
2017-06-28T09:47:28.311Z,21.50
2017-06-28T09:49:56.840Z,21.50
2017-06-28T09:52:25.901Z,21.40
2017-06-28T09:54:54.181Z,21.40
2017-06-28T09:57:23.252Z,21.90
2017-06-28T09:59:52.308Z,21.90
2017-06-28T10:02:20.590Z,21.90
2017-06-28T10:04:48.909Z,21.90
2017-06-28T10:07:17.176Z,21.80
2017-06-28T10:09:45.460Z,21.80
2017-06-28T10:12:13.788Z,21.80
2017-06-28T10:14:42.060Z,22.10
2017-06-28T10:17:10.376Z,22.20
2017-06-28T10:19:39.451Z,22.70
2017-06-28T10:22:08.495Z,22.60
2017-06-28T10:24:36.777Z,22.50
2017-06-28T10:27:05.096Z,22.20
2017-06-28T10:29:33.380Z,22.10
2017-06-28T10:32:01.651Z,22.30
2017-06-28T10:34:29.972Z,22.60
2017-06-28T10:36:58.248Z,22.60
2017-06-28T10:39:26.521Z,22.60
2017-06-28T10:41:54.840Z,22.50
2017-06-28T10:44:23.120Z,22.60
2017-06-28T10:46:51.423Z,22.50
2017-06-28T10:49:19.737Z,22.70
2017-06-28T10:51:48.021Z,22.80
2017-06-28T10:54:16.313Z,22.90
2017-06-28T10:56:44.629Z,22.90
2017-06-28T10:59:12.912Z,22.80
2017-06-28T11:01:41.184Z,23.00
2017-06-28T11:04:09.500Z,23.10
2017-06-28T11:06:37.775Z,23.10
2017-06-28T11:09:06.052Z,23.10
2017-06-28T11:11:34.386Z,23.00
2017-06-28T11:14:02.664Z,22.90
2017-06-28T11:16:30.948Z,22.80
2017-06-28T11:18:59.376Z,22.60
2017-06-28T11:21:27.656Z,22.70
2017-06-28T11:23:55.936Z,22.90
2017-06-28T11:26:24.268Z,23.40
2017-06-28T11:28:52.553Z,24.00
2017-06-28T11:31:20.836Z,24.20
2017-06-28T11:33:49.152Z,24.10
2017-06-28T11:36:17.432Z,24.10
2017-06-28T11:38:45.723Z,24.20
2017-06-28T11:41:14.212Z,24.40
2017-06-28T11:43:43.252Z,24.30
2017-06-28T11:46:11.536Z,24.20
2017-06-28T11:48:39.854Z,24.20
2017-06-28T11:51:08.140Z,24.40
2017-06-28T11:53:36.420Z,24.90
2017-06-28T11:56:04.743Z,25.00
2017-06-28T11:58:33.020Z,25.30
2017-06-28T12:01:01.304Z,25.80
2017-06-28T12:03:29.617Z,25.80
2017-06-28T12:05:58.002Z,25.80
2017-06-28T12:08:26.285Z,25.40
2017-06-28T12:10:55.407Z,26.20
2017-06-28T12:13:24.436Z,26.00
2017-06-28T12:15:52.724Z,25.90
2017-06-28T12:18:21.814Z,25.40
2017-06-28T12:20:50.867Z,25.40
2017-06-28T12:23:19.156Z,25.30
2017-06-28T12:25:48.352Z,25.40
2017-06-28T12:28:16.636Z,25.40
2017-06-28T12:30:44.920Z,24.90
2017-06-28T12:33:13.228Z,24.60
2017-06-28T12:35:41.505Z,24.40
2017-06-28T12:38:09.812Z,24.40
2017-06-28T12:40:38.280Z,24.40
2017-06-28T12:43:06.560Z,24.20
2017-06-28T12:45:35.635Z,23.80
2017-06-28T12:48:04.740Z,23.60
2017-06-28T12:50:33.038Z,23.50
2017-06-28T12:53:01.339Z,23.40
2017-06-28T12:55:29.784Z,23.40
2017-06-28T12:57:58.060Z,23.00
2017-06-28T13:00:26.372Z,22.80
2017-06-28T13:02:54.685Z,22.50
2017-06-28T13:05:22.972Z,22.20
2017-06-28T13:07:51.256Z,22.10
2017-06-28T13:10:19.600Z,22.40
2017-06-28T13:12:47.881Z,22.90
2017-06-28T13:15:16.165Z,23.70
2017-06-28T13:17:44.460Z,24.30
2017-06-28T13:20:13.507Z,26.20
2017-06-28T13:22:41.800Z,26.20
2017-06-28T13:25:10.155Z,26.40
2017-06-28T13:27:38.423Z,26.90
2017-06-28T13:30:07.485Z,27.40
2017-06-28T13:32:35.800Z,27.30
2017-06-28T13:35:04.088Z,27.70
2017-06-28T13:37:32.371Z,27.70
2017-06-28T13:40:00.704Z,27.90
2017-06-28T13:42:28.989Z,28.00
2017-06-28T13:44:57.268Z,27.70
2017-06-28T13:47:25.872Z,27.50
2017-06-28T13:49:54.144Z,27.30
2017-06-28T13:52:22.425Z,26.40
2017-06-28T13:54:50.752Z,25.80
2017-06-28T13:57:19.041Z,25.50
2017-06-28T13:59:47.336Z,25.60
2017-06-28T14:02:15.636Z,26.30
2017-06-28T14:04:43.916Z,26.90
2017-06-28T14:07:12.197Z,27.50
2017-06-28T14:09:40.513Z,28.00
2017-06-28T14:12:09.555Z,28.60
2017-06-28T14:14:37.846Z,28.50
2017-06-28T14:17:06.931Z,28.40
2017-06-28T14:19:35.977Z,28.70
2017-06-28T14:22:04.260Z,28.60
2017-06-28T14:24:33.453Z,28.90
2017-06-28T14:27:02.505Z,29.10
2017-06-28T14:29:30.792Z,29.10
2017-06-28T14:31:59.884Z,29.30
2017-06-28T14:34:28.168Z,29.20
2017-06-28T14:36:56.456Z,29.30
2017-06-28T14:39:24.780Z,29.50
2017-06-28T14:41:53.074Z,29.00
2017-06-28T14:44:21.361Z,29.00
2017-06-28T14:46:49.956Z,28.80
2017-06-28T14:49:18.239Z,28.50
2017-06-28T14:51:46.528Z,28.50
2017-06-28T14:54:14.848Z,28.30
2017-06-28T14:56:43.133Z,28.20
2017-06-28T14:59:11.411Z,28.10
2017-06-28T15:01:39.733Z,28.10
2017-06-28T15:04:08.026Z,28.00
2017-06-28T15:06:36.312Z,27.70
2017-06-28T15:09:04.636Z,27.70
2017-06-28T15:11:32.920Z,27.60
2017-06-28T15:14:01.204Z,27.30
2017-06-28T15:16:29.524Z,27.10
2017-06-28T15:18:57.805Z,26.90
2017-06-28T15:21:26.979Z,26.80
2017-06-28T15:23:55.304Z,27.10
2017-06-28T15:26:23.614Z,27.20
2017-06-28T15:28:51.889Z,27.20
2017-06-28T15:31:20.388Z,27.20
2017-06-28T15:33:48.675Z,27.40
2017-06-28T15:36:16.964Z,27.60
2017-06-28T15:38:45.287Z,27.50
2017-06-28T15:41:13.596Z,27.40
2017-06-28T15:43:41.876Z,27.40
2017-06-28T15:46:10.204Z,27.00
2017-06-28T15:48:38.480Z,26.90
2017-06-28T15:51:07.084Z,27.20
2017-06-28T15:53:48.012Z,27.40
2017-06-28T15:56:29.195Z,27.40
2017-06-28T15:58:58.498Z,27.30
2017-06-28T16:01:26.785Z,27.20
2017-06-28T16:03:55.069Z,26.70
2017-06-28T16:06:23.391Z,26.70
2017-06-28T16:08:51.707Z,26.70
2017-06-28T16:11:19.984Z,26.70
2017-06-28T16:13:49.064Z,26.60
2017-06-28T16:16:17.361Z,26.50
2017-06-28T16:18:45.648Z,26.60
2017-06-28T16:21:13.990Z,26.70
2017-06-28T16:23:42.264Z,26.60
2017-06-28T16:26:10.540Z,26.60
2017-06-28T16:28:38.857Z,26.40
2017-06-28T16:31:07.140Z,26.60
2017-06-28T16:33:35.422Z,26.70
2017-06-28T16:36:03.757Z,26.50
2017-06-28T16:38:32.048Z,26.40
2017-06-28T16:41:00.328Z,26.40
2017-06-28T16:43:28.652Z,26.40
2017-06-28T16:45:56.931Z,26.20
2017-06-28T16:48:25.220Z,26.20
2017-06-28T16:50:54.303Z,25.90
2017-06-28T16:53:22.588Z,25.90
2017-06-28T16:55:51.644Z,25.80
2017-06-28T16:58:19.947Z,25.70
2017-06-28T17:00:48.241Z,25.60
2017-06-28T17:03:16.516Z,25.50
2017-06-28T17:05:44.845Z,25.50
2017-06-28T17:08:13.127Z,25.50
2017-06-28T17:10:41.408Z,25.50
2017-06-28T17:13:09.716Z,25.50
2017-06-28T17:15:38.011Z,25.30
2017-06-28T17:18:06.287Z,25.30
2017-06-28T17:20:34.616Z,25.40
2017-06-28T17:23:02.896Z,25.30
2017-06-28T17:25:31.173Z,25.20
2017-06-28T17:27:59.519Z,25.30
2017-06-28T17:30:27.793Z,25.40
2017-06-28T17:32:56.071Z,25.50
2017-06-28T17:35:25.152Z,25.50
2017-06-28T17:37:54.205Z,25.50
2017-06-28T17:40:22.489Z,25.50
2017-06-28T17:42:51.573Z,25.30
2017-06-28T17:45:20.625Z,25.30
2017-06-28T17:47:48.911Z,25.30
2017-06-28T17:50:17.219Z,25.20
2017-06-28T17:52:45.496Z,25.10
2017-06-28T17:55:13.772Z,25.10
2017-06-28T17:57:42.084Z,25.00
2017-06-28T18:00:10.373Z,25.10
2017-06-28T18:02:38.660Z,24.90
2017-06-28T18:05:06.964Z,24.70
2017-06-28T18:07:36.015Z,25.00
2017-06-28T18:10:04.291Z,25.00
2017-06-28T18:12:33.376Z,24.90
2017-06-28T18:15:01.659Z,24.80
2017-06-28T18:17:29.935Z,24.90
2017-06-28T18:19:58.475Z,24.90
2017-06-28T18:22:27.526Z,24.70
2017-06-28T18:24:55.808Z,24.70
2017-06-28T18:27:24.896Z,24.70
2017-06-28T18:29:54.873Z,24.70
2017-06-28T18:32:23.148Z,24.70
2017-06-28T18:34:51.464Z,24.60
2017-06-28T18:37:19.740Z,24.50
2017-06-28T18:39:48.088Z,24.40
2017-06-28T18:42:16.397Z,24.30
2017-06-28T18:44:45.445Z,24.30
2017-06-28T18:47:13.716Z,24.30
2017-06-28T18:49:42.037Z,24.30
2017-06-28T18:52:10.316Z,24.30
2017-06-28T18:54:38.604Z,24.10
2017-06-28T18:57:06.937Z,24.10
2017-06-28T18:59:35.214Z,24.10
2017-06-28T19:02:03.489Z,24.10
2017-06-28T19:04:31.814Z,24.00
2017-06-28T19:07:00.092Z,24.00
2017-06-28T19:09:28.376Z,23.90
2017-06-28T19:11:56.690Z,23.90
2017-06-28T19:14:24.968Z,23.90
2017-06-28T19:16:53.252Z,23.80
2017-06-28T19:19:21.578Z,23.70
2017-06-28T19:21:49.858Z,23.60
2017-06-28T19:24:18.128Z,23.50
2017-06-28T19:26:46.558Z,23.50
2017-06-28T19:29:14.868Z,23.40
2017-06-28T19:31:43.157Z,23.40
2017-06-28T19:34:11.444Z,23.30
2017-06-28T19:36:39.720Z,23.30
2017-06-28T19:39:08.000Z,23.20
2017-06-28T19:41:36.377Z,23.10
2017-06-28T19:44:04.652Z,23.00
2017-06-28T19:46:33.697Z,22.90
2017-06-28T19:49:02.020Z,22.80
2017-06-28T19:51:30.303Z,22.80
2017-06-28T19:53:58.577Z,22.70
2017-06-28T19:56:26.984Z,22.60
2017-06-28T19:58:56.031Z,22.60
2017-06-28T20:01:24.319Z,22.50
2017-06-28T20:03:52.645Z,22.50
2017-06-28T20:06:20.928Z,22.40
2017-06-28T20:08:49.199Z,22.20
2017-06-28T20:11:17.516Z,22.20
2017-06-28T20:13:45.793Z,22.20
2017-06-28T20:16:14.076Z,22.20
2017-06-28T20:18:43.036Z,22.10
2017-06-28T20:21:11.311Z,22.00
2017-06-28T20:23:39.581Z,21.90
2017-06-28T20:26:07.892Z,21.80
2017-06-28T20:28:36.183Z,21.80
2017-06-28T20:31:04.456Z,21.70
2017-06-28T20:33:32.768Z,21.60
2017-06-28T20:36:01.044Z,21.60
2017-06-28T20:38:29.324Z,21.60
2017-06-28T20:40:57.648Z,21.50
2017-06-28T20:43:25.958Z,21.50
2017-06-28T20:45:54.238Z,21.60
2017-06-28T20:48:24.144Z,21.50
2017-06-28T20:50:53.211Z,21.40
2017-06-28T20:53:21.485Z,21.30
2017-06-28T20:55:50.683Z,21.20
2017-06-28T20:58:19.725Z,21.10
2017-06-28T21:00:48.004Z,21.10
2017-06-28T21:03:16.481Z,21.00
2017-06-28T21:05:45.520Z,21.00
2017-06-28T21:08:13.796Z,21.00
2017-06-28T21:10:42.297Z,21.00
2017-06-28T21:13:11.341Z,20.70
2017-06-28T21:15:39.616Z,20.60
2017-06-28T21:18:08.706Z,20.60
2017-06-28T21:20:37.744Z,20.70
2017-06-28T21:23:06.016Z,20.60
2017-06-28T21:25:34.330Z,20.80
2017-06-28T21:28:02.604Z,20.80
2017-06-28T21:30:30.895Z,20.70
2017-06-28T21:32:59.303Z,20.70
2017-06-28T21:35:27.589Z,20.60
2017-06-28T21:37:55.864Z,20.50
2017-06-28T21:40:24.290Z,20.50
2017-06-28T21:42:53.320Z,20.60
2017-06-28T21:45:21.625Z,20.50
2017-06-28T21:47:49.944Z,20.70
2017-06-28T21:50:18.222Z,20.80
2017-06-28T21:52:46.494Z,20.70
2017-06-28T21:55:14.805Z,20.60
2017-06-28T21:57:43.089Z,20.60
2017-06-28T22:00:11.361Z,20.60
2017-06-28T22:02:39.672Z,20.70
2017-06-28T22:05:07.952Z,20.70
2017-06-28T22:07:36.221Z,20.80
2017-06-28T22:10:04.535Z,20.90
2017-06-28T22:12:33.620Z,20.70
2017-06-28T22:15:02.671Z,20.60
2017-06-28T22:17:37.932Z,20.60
2017-06-28T22:20:06.236Z,20.60
2017-06-28T22:22:34.553Z,20.60
2017-06-28T22:25:03.636Z,20.70
2017-06-28T22:27:32.664Z,20.80
2017-06-28T22:30:00.952Z,20.70
2017-06-28T22:32:30.153Z,20.70
2017-06-28T22:34:59.195Z,20.60
2017-06-28T22:37:27.477Z,20.60
2017-06-28T22:39:55.957Z,20.60
2017-06-28T22:42:25.019Z,20.60
2017-06-28T22:44:54.087Z,20.50
2017-06-28T22:47:22.596Z,20.50
2017-06-28T22:49:50.872Z,20.50
2017-06-28T22:52:19.156Z,20.50
2017-06-28T22:54:47.776Z,20.40
2017-06-28T22:57:16.818Z,20.40
2017-06-28T22:59:45.095Z,20.40
2017-06-28T23:02:13.421Z,20.40
2017-06-28T23:04:41.715Z,20.40
2017-06-28T23:07:10.000Z,20.50
2017-06-28T23:09:39.080Z,20.60
2017-06-28T23:12:08.120Z,20.70
2017-06-28T23:14:36.407Z,20.60
2017-06-28T23:17:04.928Z,20.60
2017-06-28T23:19:33.251Z,20.60
2017-06-28T23:22:01.535Z,20.60
2017-06-28T23:24:29.878Z,20.50
2017-06-28T23:26:58.924Z,20.30
2017-06-28T23:29:27.208Z,20.30
2017-06-28T23:31:56.300Z,20.30
2017-06-28T23:34:25.340Z,20.20
2017-06-28T23:36:53.611Z,20.20
2017-06-28T23:39:22.004Z,20.20
2017-06-28T23:41:51.736Z,20.00
2017-06-28T23:44:20.013Z,19.90
2017-06-28T23:46:48.324Z,19.90
2017-06-28T23:49:17.364Z,19.80
2017-06-28T23:51:45.642Z,19.80
2017-06-28T23:54:13.941Z,19.80
2017-06-28T23:56:42.223Z,19.90
2017-06-28T23:59:10.496Z,19.90
